Charlottenlund, Denmark
Current Conditions -  °F | °C
As of 11:50 AM on Saturday 25 Oct 2014 (Local Time) from EKCH Reporting Station
Broken Clouds Broken Clouds  
Wind Chill: 52°   Ceiling: 1000
Heat Index: 52°   Visibility: 5mi
Dew Point: 48°   Wind: 15mph
Humidity: 88%   Direction: 190°S
Pressure: 30.03"   Gusts: NA
Location:  55.75°N, 12.59°E
Report Text: EKCH 250950Z 19013KT 8000 BKN010 11/09 Q1017 BECMG BKN008
Loading
Personal Weather Stations






























Interactive Weather Map
Tropical Storm Tracking
New forecast layout! Learn more

10-Day Weather Forecast

Advertisements
Track Severe Weather on mobile